Terminal Aerodrome Forecast
Issued by NWS

Home | Current Version | Previous Version | Text Only | Print | Product List | Glossary On
Versions: 1 2 3 4 5 6 7 8 9 10 11 12 13 14 15 16
010
FTUS43 KDLH 200520
TAFHYR
TAF
KHYR 200520Z 2006/2106 19008KT P6SM FEW250 WS020/22040KT
     FM201100 17006KT P6SM FEW250
     FM201600 18012G20KT P6SM FEW250
     FM210300 18012KT P6SM SCT250 WS020/19040KT=

USA.gov is the U.S. government's official web portal to all federal, state and local government web resources and services.